Terminal Aerodrome Forecast
Issued by NWS

Home | Current Version | Previous Version | Text Only | Print | Product List | Glossary On
Versions: 1 2 3 4 5 6 7 8 9 10 11 12 13
000
FTUS41 KBTV 061723
TAFMSS
TAF
KMSS 061723Z 0618/0718 28006KT P6SM SKC
     FM070100 23004KT P6SM SKC
     FM071500 25008KT P6SM FEW250=

USA.gov is the U.S. government's official web portal to all federal, state and local government web resources and services.